sensor_id;sensor_type;location;lat;lon;timestamp;P1;durP1;ratioP1;P2;durP2;ratioP2
73515;SDS011;61763;51.416;5.442;2023-10-13T00:01:57;13.27;;;6.80;;
73515;SDS011;61763;51.416;5.442;2023-10-13T00:04:27;11.82;;;6.93;;
73515;SDS011;61763;51.416;5.442;2023-10-13T00:06:54;15.02;;;5.70;;
73515;SDS011;61763;51.416;5.442;2023-10-13T00:09:26;17.05;;;7.55;;
73515;SDS011;61763;51.416;5.442;2023-10-13T00:11:57;14.30;;;7.53;;
73515;SDS011;61763;51.416;5.442;2023-10-13T00:14:24;15.68;;;8.25;;
73515;SDS011;61763;51.416;5.442;2023-10-13T00:17:02;12.07;;;5.78;;
73515;SDS011;61763;51.416;5.442;2023-10-13T00:19:29;12.13;;;7.20;;
73515;SDS011;61763;51.416;5.442;2023-10-13T00:22:09;14.70;;;7.40;;
73515;SDS011;61763;51.416;5.442;2023-10-13T00:24:36;12.93;;;5.90;;
73515;SDS011;61763;51.416;5.442;2023-10-13T00:27:09;11.52;;;5.55;;
73515;SDS011;61763;51.416;5.442;2023-10-13T00:29:52;16.08;;;6.35;;
73515;SDS011;61763;51.416;5.442;2023-10-13T00:32:38;14.48;;;7.60;;
73515;SDS011;61763;51.416;5.442;2023-10-13T00:35:05;15.02;;;7.75;;
73515;SDS011;61763;51.416;5.442;2023-10-13T00:37:31;12.85;;;5.72;;
73515;SDS011;61763;51.416;5.442;2023-10-13T00:40:06;14.98;;;7.63;;
73515;SDS011;61763;51.416;5.442;2023-10-13T00:42:41;15.85;;;5.53;;
73515;SDS011;61763;51.416;5.442;2023-10-13T00:45:16;11.80;;;7.13;;
73515;SDS011;61763;51.416;5.442;2023-10-13T00:47:42;15.48;;;6.88;;
73515;SDS011;61763;51.416;5.442;2023-10-13T00:50:22;15.63;;;5.32;;
73515;SDS011;61763;51.416;5.442;2023-10-13T00:52:49;13.23;;;6.88;;
73515;SDS011;61763;51.416;5.442;2023-10-13T00:55:16;12.40;;;6.50;;
73515;SDS011;61763;51.416;5.442;2023-10-13T00:57:44;15.10;;;4.95;;
73515;SDS011;61763;51.416;5.442;2023-10-13T01:00:12;15.85;;;6.88;;
73515;SDS011;61763;51.416;5.442;2023-10-13T01:02:45;12.52;;;6.40;;
73515;SDS011;61763;51.416;5.442;2023-10-13T01:05:19;12.38;;;5.30;;
73515;SDS011;61763;51.416;5.442;2023-10-13T01:07:49;12.93;;;4.60;;
73515;SDS011;61763;51.416;5.442;2023-10-13T01:10:19;12.85;;;6.78;;
73515;SDS011;61763;51.416;5.442;2023-10-13T01:12:48;14.40;;;6.28;;
73515;SDS011;61763;51.416;5.442;2023-10-13T01:15:17;14.68;;;5.13;;
73515;SDS011;61763;51.416;5.442;2023-10-13T01:17:46;17.65;;;6.53;;
73515;SDS011;61763;51.416;5.442;2023-10-13T01:20:12;10.70;;;4.78;;
73515;SDS011;61763;51.416;5.442;2023-10-13T01:23:07;15.27;;;7.22;;
73515;SDS011;61763;51.416;5.442;2023-10-13T01:25:43;15.10;;;7.03;;
73515;SDS011;61763;51.416;5.442;2023-10-13T01:28:08;12.50;;;5.90;;
73515;SDS011;61763;51.416;5.442;2023-10-13T01:30:35;12.35;;;5.47;;
73515;SDS011;61763;51.416;5.442;2023-10-13T01:33:03;17.63;;;7.50;;
73515;SDS011;61763;51.416;5.442;2023-10-13T01:35:29;15.05;;;7.10;;
73515;SDS011;61763;51.416;5.442;2023-10-13T01:38:01;15.90;;;6.53;;
73515;SDS011;61763;51.416;5.442;2023-10-13T01:40:27;16.75;;;6.18;;
73515;SDS011;61763;51.416;5.442;2023-10-13T01:42:59;14.13;;;7.88;;
73515;SDS011;61763;51.416;5.442;2023-10-13T01:45:25;17.60;;;8.43;;
73515;SDS011;61763;51.416;5.442;2023-10-13T01:47:54;19.45;;;8.77;;
73515;SDS011;61763;51.416;5.442;2023-10-13T01:50:22;25.58;;;10.27;;
73515;SDS011;61763;51.416;5.442;2023-10-13T01:52:54;19.77;;;9.45;;
73515;SDS011;61763;51.416;5.442;2023-10-13T01:55:39;21.58;;;10.90;;
73515;SDS011;61763;51.416;5.442;2023-10-13T01:58:09;23.85;;;11.60;;
73515;SDS011;61763;51.416;5.442;2023-10-13T02:00:41;26.65;;;12.25;;
73515;SDS011;61763;51.416;5.442;2023-10-13T02:03:08;24.33;;;9.82;;
73515;SDS011;61763;51.416;5.442;2023-10-13T02:05:50;30.77;;;12.77;;
73515;SDS011;61763;51.416;5.442;2023-10-13T02:08:19;32.40;;;14.48;;
73515;SDS011;61763;51.416;5.442;2023-10-13T02:10:49;34.10;;;14.05;;
73515;SDS011;61763;51.416;5.442;2023-10-13T02:13:16;31.33;;;14.57;;
73515;SDS011;61763;51.416;5.442;2023-10-13T02:15:43;39.65;;;14.60;;
73515;SDS011;61763;51.416;5.442;2023-10-13T02:18:13;32.03;;;13.00;;
73515;SDS011;61763;51.416;5.442;2023-10-13T02:21:07;32.30;;;14.43;;
73515;SDS011;61763;51.416;5.442;2023-10-13T02:23:39;34.70;;;13.68;;
73515;SDS011;61763;51.416;5.442;2023-10-13T02:26:13;29.17;;;14.27;;
73515;SDS011;61763;51.416;5.442;2023-10-13T02:28:56;30.90;;;14.57;;
73515;SDS011;61763;51.416;5.442;2023-10-13T02:31:32;32.85;;;14.48;;
73515;SDS011;61763;51.416;5.442;2023-10-13T02:33:59;31.80;;;15.38;;
73515;SDS011;61763;51.416;5.442;2023-10-13T02:36:26;31.00;;;14.68;;
73515;SDS011;61763;51.416;5.442;2023-10-13T02:39:10;37.80;;;15.88;;
73515;SDS011;61763;51.416;5.442;2023-10-13T02:41:35;30.15;;;12.40;;
73515;SDS011;61763;51.416;5.442;2023-10-13T02:44:04;31.35;;;14.05;;
73515;SDS011;61763;51.416;5.442;2023-10-13T02:46:35;30.10;;;13.07;;
73515;SDS011;61763;51.416;5.442;2023-10-13T02:49:04;30.98;;;14.55;;
73515;SDS011;61763;51.416;5.442;2023-10-13T02:51:37;30.83;;;12.57;;
73515;SDS011;61763;51.416;5.442;2023-10-13T02:54:07;34.80;;;15.82;;
73515;SDS011;61763;51.416;5.442;2023-10-13T02:56:37;31.42;;;12.25;;
73515;SDS011;61763;51.416;5.442;2023-10-13T02:59:02;28.85;;;13.98;;
73515;SDS011;61763;51.416;5.442;2023-10-13T03:03:59;27.77;;;11.60;;
73515;SDS011;61763;51.416;5.442;2023-10-13T03:06:26;29.85;;;13.18;;
73515;SDS011;61763;51.416;5.442;2023-10-13T03:08:58;32.00;;;12.60;;
73515;SDS011;61763;51.416;5.442;2023-10-13T03:11:42;29.98;;;12.63;;
73515;SDS011;61763;51.416;5.442;2023-10-13T03:14:15;38.17;;;16.20;;
73515;SDS011;61763;51.416;5.442;2023-10-13T03:16:54;30.00;;;12.63;;
73515;SDS011;61763;51.416;5.442;2023-10-13T03:19:27;32.03;;;13.30;;
73515;SDS011;61763;51.416;5.442;2023-10-13T03:21:58;37.40;;;14.68;;
73515;SDS011;61763;51.416;5.442;2023-10-13T03:24:35;31.95;;;13.65;;
73515;SDS011;61763;51.416;5.442;2023-10-13T03:27:03;36.70;;;13.00;;
73515;SDS011;61763;51.416;5.442;2023-10-13T03:29:34;33.88;;;15.15;;
73515;SDS011;61763;51.416;5.442;2023-10-13T03:32:12;37.42;;;15.70;;
73515;SDS011;61763;51.416;5.442;2023-10-13T03:34:40;31.58;;;14.73;;
73515;SDS011;61763;51.416;5.442;2023-10-13T03:37:27;30.00;;;11.88;;
73515;SDS011;61763;51.416;5.442;2023-10-13T03:42:54;31.30;;;13.27;;
73515;SDS011;61763;51.416;5.442;2023-10-13T03:48:23;23.95;;;12.02;;
73515;SDS011;61763;51.416;5.442;2023-10-13T03:50:52;26.48;;;12.65;;
73515;SDS011;61763;51.416;5.442;2023-10-13T03:53:27;33.65;;;14.93;;
73515;SDS011;61763;51.416;5.442;2023-10-13T03:55:58;31.05;;;12.65;;
73515;SDS011;61763;51.416;5.442;2023-10-13T03:58:33;29.75;;;14.60;;
73515;SDS011;61763;51.416;5.442;2023-10-13T04:01:11;33.67;;;14.48;;
73515;SDS011;61763;51.416;5.442;2023-10-13T04:03:40;35.13;;;15.43;;
73515;SDS011;61763;51.416;5.442;2023-10-13T04:06:26;33.80;;;11.98;;
73515;SDS011;61763;51.416;5.442;2023-10-13T04:09:18;29.20;;;14.68;;
73515;SDS011;61763;51.416;5.442;2023-10-13T04:11:56;30.45;;;13.95;;
73515;SDS011;61763;51.416;5.442;2023-10-13T04:14:44;30.25;;;13.10;;
73515;SDS011;61763;51.416;5.442;2023-10-13T04:17:28;27.85;;;12.38;;
73515;SDS011;61763;51.416;5.442;2023-10-13T04:19:55;24.60;;;11.30;;
73515;SDS011;61763;51.416;5.442;2023-10-13T04:28:13;26.85;;;12.38;;
73515;SDS011;61763;51.416;5.442;2023-10-13T04:33:24;23.23;;;10.82;;
73515;SDS011;61763;51.416;5.442;2023-10-13T04:36:14;25.80;;;10.55;;
73515;SDS011;61763;51.416;5.442;2023-10-13T04:38:56;26.95;;;12.77;;
73515;SDS011;61763;51.416;5.442;2023-10-13T04:41:28;24.58;;;10.32;;
73515;SDS011;61763;51.416;5.442;2023-10-13T04:44:01;27.92;;;11.38;;
73515;SDS011;61763;51.416;5.442;2023-10-13T04:46:30;25.23;;;11.95;;
73515;SDS011;61763;51.416;5.442;2023-10-13T04:49:11;26.75;;;11.40;;
73515;SDS011;61763;51.416;5.442;2023-10-13T04:51:57;26.00;;;13.30;;
73515;SDS011;61763;51.416;5.442;2023-10-13T04:57:13;20.55;;;11.52;;
73515;SDS011;61763;51.416;5.442;2023-10-13T04:59:50;18.77;;;9.48;;
73515;SDS011;61763;51.416;5.442;2023-10-13T05:02:28;24.20;;;9.65;;
73515;SDS011;61763;51.416;5.442;2023-10-13T05:05:00;21.02;;;10.65;;
73515;SDS011;61763;51.416;5.442;2023-10-13T05:07:31;21.45;;;10.27;;
73515;SDS011;61763;51.416;5.442;2023-10-13T05:10:17;20.70;;;8.30;;
73515;SDS011;61763;51.416;5.442;2023-10-13T05:13:01;17.75;;;9.80;;
73515;SDS011;61763;51.416;5.442;2023-10-13T05:15:49;17.60;;;8.48;;
73515;SDS011;61763;51.416;5.442;2023-10-13T05:18:34;16.20;;;9.13;;
73515;SDS011;61763;51.416;5.442;2023-10-13T05:21:19;16.90;;;9.68;;
73515;SDS011;61763;51.416;5.442;2023-10-13T05:24:03;13.32;;;8.73;;
73515;SDS011;61763;51.416;5.442;2023-10-13T05:26:48;15.48;;;6.53;;
73515;SDS011;61763;51.416;5.442;2023-10-13T05:29:32;12.43;;;6.45;;
73515;SDS011;61763;51.416;5.442;2023-10-13T05:32:16;19.60;;;8.15;;
73515;SDS011;61763;51.416;5.442;2023-10-13T05:35:00;17.10;;;8.38;;
73515;SDS011;61763;51.416;5.442;2023-10-13T05:37:44;13.27;;;7.35;;
73515;SDS011;61763;51.416;5.442;2023-10-13T05:40:28;14.65;;;8.52;;
73515;SDS011;61763;51.416;5.442;2023-10-13T05:43:12;14.15;;;7.82;;
73515;SDS011;61763;51.416;5.442;2023-10-13T05:46:00;11.30;;;6.47;;
73515;SDS011;61763;51.416;5.442;2023-10-13T05:48:45;15.18;;;6.68;;
73515;SDS011;61763;51.416;5.442;2023-10-13T05:51:25;14.88;;;8.98;;
73515;SDS011;61763;51.416;5.442;2023-10-13T05:53:58;15.88;;;6.40;;
73515;SDS011;61763;51.416;5.442;2023-10-13T05:56:39;17.73;;;7.05;;
73515;SDS011;61763;51.416;5.442;2023-10-13T05:59:29;15.68;;;7.95;;
73515;SDS011;61763;51.416;5.442;2023-10-13T06:02:16;15.55;;;8.05;;
73515;SDS011;61763;51.416;5.442;2023-10-13T06:07:48;18.15;;;8.27;;
73515;SDS011;61763;51.416;5.442;2023-10-13T06:10:32;21.20;;;9.25;;
73515;SDS011;61763;51.416;5.442;2023-10-13T06:13:15;15.73;;;7.20;;
73515;SDS011;61763;51.416;5.442;2023-10-13T06:15:59;19.48;;;8.52;;
73515;SDS011;61763;51.416;5.442;2023-10-13T06:18:43;18.98;;;6.72;;
73515;SDS011;61763;51.416;5.442;2023-10-13T06:21:27;18.15;;;6.10;;
73515;SDS011;61763;51.416;5.442;2023-10-13T06:24:10;19.08;;;6.45;;
73515;SDS011;61763;51.416;5.442;2023-10-13T06:29:40;14.68;;;5.93;;
73515;SDS011;61763;51.416;5.442;2023-10-13T06:32:06;17.13;;;6.03;;
73515;SDS011;61763;51.416;5.442;2023-10-13T06:34:41;16.02;;;7.28;;
73515;SDS011;61763;51.416;5.442;2023-10-13T06:37:13;18.20;;;7.97;;
73515;SDS011;61763;51.416;5.442;2023-10-13T06:39:55;14.15;;;7.45;;
73515;SDS011;61763;51.416;5.442;2023-10-13T06:44:53;13.05;;;6.22;;
73515;SDS011;61763;51.416;5.442;2023-10-13T06:47:20;14.55;;;5.75;;
73515;SDS011;61763;51.416;5.442;2023-10-13T06:49:49;17.45;;;8.02;;
73515;SDS011;61763;51.416;5.442;2023-10-13T06:52:19;14.38;;;4.82;;
73515;SDS011;61763;51.416;5.442;2023-10-13T06:54:49;19.15;;;6.32;;
73515;SDS011;61763;51.416;5.442;2023-10-13T06:57:15;16.35;;;6.90;;
73515;SDS011;61763;51.416;5.442;2023-10-13T06:59:45;18.27;;;5.78;;
73515;SDS011;61763;51.416;5.442;2023-10-13T07:02:13;14.45;;;5.22;;
73515;SDS011;61763;51.416;5.442;2023-10-13T07:04:48;11.73;;;6.00;;
73515;SDS011;61763;51.416;5.442;2023-10-13T07:09:47;14.77;;;5.95;;
73515;SDS011;61763;51.416;5.442;2023-10-13T07:12:20;14.55;;;5.10;;
73515;SDS011;61763;51.416;5.442;2023-10-13T07:14:51;15.48;;;5.88;;
73515;SDS011;61763;51.416;5.442;2023-10-13T07:17:18;11.57;;;4.13;;
73515;SDS011;61763;51.416;5.442;2023-10-13T07:19:54;18.10;;;6.05;;
73515;SDS011;61763;51.416;5.442;2023-10-13T07:22:24;12.48;;;5.50;;
73515;SDS011;61763;51.416;5.442;2023-10-13T07:24:52;15.77;;;5.70;;
73515;SDS011;61763;51.416;5.442;2023-10-13T07:27:18;13.93;;;5.18;;
73515;SDS011;61763;51.416;5.442;2023-10-13T07:29:51;15.35;;;4.65;;
73515;SDS011;61763;51.416;5.442;2023-10-13T07:32:24;17.52;;;5.03;;
73515;SDS011;61763;51.416;5.442;2023-10-13T07:34:54;16.92;;;4.55;;
73515;SDS011;61763;51.416;5.442;2023-10-13T07:37:21;13.15;;;5.20;;
73515;SDS011;61763;51.416;5.442;2023-10-13T07:39:53;12.85;;;3.88;;
73515;SDS011;61763;51.416;5.442;2023-10-13T07:42:18;14.10;;;3.92;;
73515;SDS011;61763;51.416;5.442;2023-10-13T07:44:47;9.73;;;4.05;;
73515;SDS011;61763;51.416;5.442;2023-10-13T07:47:12;11.40;;;4.63;;
73515;SDS011;61763;51.416;5.442;2023-10-13T07:49:39;12.82;;;4.93;;
73515;SDS011;61763;51.416;5.442;2023-10-13T07:52:06;12.25;;;2.92;;
73515;SDS011;61763;51.416;5.442;2023-10-13T07:54:45;14.20;;;4.80;;
73515;SDS011;61763;51.416;5.442;2023-10-13T07:57:29;12.63;;;4.60;;
73515;SDS011;61763;51.416;5.442;2023-10-13T07:59:55;12.52;;;3.58;;
73515;SDS011;61763;51.416;5.442;2023-10-13T08:02:31;9.35;;;4.25;;
73515;SDS011;61763;51.416;5.442;2023-10-13T08:05:16;13.52;;;2.95;;
73515;SDS011;61763;51.416;5.442;2023-10-13T08:08:02;11.75;;;4.95;;
73515;SDS011;61763;51.416;5.442;2023-10-13T08:10:35;9.00;;;3.40;;
73515;SDS011;61763;51.416;5.442;2023-10-13T08:13:01;9.60;;;4.45;;
73515;SDS011;61763;51.416;5.442;2023-10-13T08:15:26;15.25;;;3.38;;
73515;SDS011;61763;51.416;5.442;2023-10-13T08:17:58;11.80;;;3.42;;
73515;SDS011;61763;51.416;5.442;2023-10-13T08:20:28;13.43;;;5.78;;
73515;SDS011;61763;51.416;5.442;2023-10-13T08:22:55;14.77;;;5.57;;
73515;SDS011;61763;51.416;5.442;2023-10-13T08:25:38;9.70;;;3.75;;
73515;SDS011;61763;51.416;5.442;2023-10-13T08:28:22;9.98;;;3.17;;
73515;SDS011;61763;51.416;5.442;2023-10-13T08:31:04;7.85;;;2.95;;
73515;SDS011;61763;51.416;5.442;2023-10-13T08:33:47;14.13;;;3.60;;
73515;SDS011;61763;51.416;5.442;2023-10-13T08:36:13;10.00;;;4.13;;
73515;SDS011;61763;51.416;5.442;2023-10-13T08:38:57;10.25;;;4.40;;
73515;SDS011;61763;51.416;5.442;2023-10-13T08:41:23;11.00;;;3.30;;
73515;SDS011;61763;51.416;5.442;2023-10-13T08:43:49;11.55;;;3.20;;
73515;SDS011;61763;51.416;5.442;2023-10-13T08:46:16;12.55;;;5.85;;
73515;SDS011;61763;51.416;5.442;2023-10-13T08:48:55;13.40;;;4.10;;
73515;SDS011;61763;51.416;5.442;2023-10-13T08:54:30;10.65;;;5.32;;
73515;SDS011;61763;51.416;5.442;2023-10-13T08:57:04;14.27;;;4.93;;
73515;SDS011;61763;51.416;5.442;2023-10-13T08:59:45;10.23;;;4.35;;
73515;SDS011;61763;51.416;5.442;2023-10-13T09:04:46;9.90;;;4.25;;
73515;SDS011;61763;51.416;5.442;2023-10-13T09:07:24;11.80;;;4.43;;
73515;SDS011;61763;51.416;5.442;2023-10-13T09:09:50;12.63;;;4.38;;
73515;SDS011;61763;51.416;5.442;2023-10-13T09:12:20;16.80;;;4.70;;
73515;SDS011;61763;51.416;5.442;2023-10-13T09:15:06;15.07;;;5.65;;
73515;SDS011;61763;51.416;5.442;2023-10-13T09:17:42;10.85;;;3.70;;
73515;SDS011;61763;51.416;5.442;2023-10-13T09:20:13;11.05;;;3.58;;
73515;SDS011;61763;51.416;5.442;2023-10-13T09:22:56;10.93;;;4.55;;
73515;SDS011;61763;51.416;5.442;2023-10-13T09:25:31;11.82;;;5.35;;
73515;SDS011;61763;51.416;5.442;2023-10-13T09:28:02;10.13;;;4.63;;
73515;SDS011;61763;51.416;5.442;2023-10-13T09:30:46;14.13;;;4.95;;
73515;SDS011;61763;51.416;5.442;2023-10-13T09:33:22;8.60;;;4.55;;
73515;SDS011;61763;51.416;5.442;2023-10-13T09:38:25;9.25;;;3.33;;
73515;SDS011;61763;51.416;5.442;2023-10-13T09:40:52;9.93;;;3.15;;
73515;SDS011;61763;51.416;5.442;2023-10-13T09:43:22;12.40;;;3.70;;
73515;SDS011;61763;51.416;5.442;2023-10-13T09:45:48;8.10;;;3.33;;
73515;SDS011;61763;51.416;5.442;2023-10-13T09:48:41;10.88;;;3.45;;
73515;SDS011;61763;51.416;5.442;2023-10-13T09:51:15;11.52;;;3.05;;
73515;SDS011;61763;51.416;5.442;2023-10-13T09:53:52;14.90;;;5.28;;
73515;SDS011;61763;51.416;5.442;2023-10-13T09:56:26;18.73;;;4.95;;
73515;SDS011;61763;51.416;5.442;2023-10-13T09:58:58;10.50;;;5.15;;
73515;SDS011;61763;51.416;5.442;2023-10-13T10:01:34;11.55;;;5.35;;
73515;SDS011;61763;51.416;5.442;2023-10-13T10:04:09;14.43;;;5.35;;
73515;SDS011;61763;51.416;5.442;2023-10-13T10:06:50;10.98;;;5.30;;
73515;SDS011;61763;51.416;5.442;2023-10-13T10:09:28;8.68;;;4.30;;
73515;SDS011;61763;51.416;5.442;2023-10-13T10:17:55;11.60;;;3.80;;
73515;SDS011;61763;51.416;5.442;2023-10-13T10:20:31;9.32;;;3.22;;
73515;SDS011;61763;51.416;5.442;2023-10-13T10:23:06;12.55;;;3.50;;
73515;SDS011;61763;51.416;5.442;2023-10-13T10:25:39;14.05;;;5.35;;
73515;SDS011;61763;51.416;5.442;2023-10-13T10:28:09;11.88;;;3.90;;
73515;SDS011;61763;51.416;5.442;2023-10-13T10:30:40;12.40;;;3.20;;
73515;SDS011;61763;51.416;5.442;2023-10-13T10:33:08;12.63;;;5.18;;
73515;SDS011;61763;51.416;5.442;2023-10-13T10:35:42;13.05;;;5.88;;
73515;SDS011;61763;51.416;5.442;2023-10-13T10:41:24;13.95;;;6.03;;
73515;SDS011;61763;51.416;5.442;2023-10-13T10:48:38;13.00;;;3.95;;
73515;SDS011;61763;51.416;5.442;2023-10-13T10:51:08;15.10;;;5.07;;
73515;SDS011;61763;51.416;5.442;2023-10-13T10:53:39;10.55;;;3.75;;
73515;SDS011;61763;51.416;5.442;2023-10-13T10:56:12;14.20;;;3.60;;
73515;SDS011;61763;51.416;5.442;2023-10-13T10:58:58;9.25;;;3.63;;
73515;SDS011;61763;51.416;5.442;2023-10-13T11:01:27;12.90;;;5.03;;
73515;SDS011;61763;51.416;5.442;2023-10-13T11:04:04;10.38;;;5.07;;
73515;SDS011;61763;51.416;5.442;2023-10-13T11:06:34;8.40;;;4.43;;
73515;SDS011;61763;51.416;5.442;2023-10-13T11:09:07;11.52;;;5.13;;
73515;SDS011;61763;51.416;5.442;2023-10-13T11:11:44;11.40;;;4.20;;
73515;SDS011;61763;51.416;5.442;2023-10-13T11:14:19;11.30;;;4.90;;
73515;SDS011;61763;51.416;5.442;2023-10-13T11:16:51;12.98;;;3.65;;
73515;SDS011;61763;51.416;5.442;2023-10-13T11:19:19;11.73;;;5.38;;
73515;SDS011;61763;51.416;5.442;2023-10-13T11:22:15;15.30;;;5.07;;
73515;SDS011;61763;51.416;5.442;2023-10-13T11:24:57;12.38;;;5.05;;
73515;SDS011;61763;51.416;5.442;2023-10-13T11:27:34;11.30;;;5.05;;
73515;SDS011;61763;51.416;5.442;2023-10-13T11:30:09;14.07;;;3.78;;
73515;SDS011;61763;51.416;5.442;2023-10-13T11:32:39;15.07;;;5.88;;
73515;SDS011;61763;51.416;5.442;2023-10-13T11:35:07;15.80;;;5.43;;
73515;SDS011;61763;51.416;5.442;2023-10-13T11:37:46;10.93;;;4.80;;
73515;SDS011;61763;51.416;5.442;2023-10-13T11:40:22;9.48;;;3.50;;
73515;SDS011;61763;51.416;5.442;2023-10-13T11:45:38;9.98;;;4.57;;
73515;SDS011;61763;51.416;5.442;2023-10-13T11:48:17;13.07;;;5.25;;
73515;SDS011;61763;51.416;5.442;2023-10-13T11:50:48;15.45;;;7.28;;
73515;SDS011;61763;51.416;5.442;2023-10-13T11:53:14;12.55;;;3.92;;
73515;SDS011;61763;51.416;5.442;2023-10-13T11:55:39;12.70;;;5.47;;
73515;SDS011;61763;51.416;5.442;2023-10-13T11:58:05;15.95;;;3.65;;
73515;SDS011;61763;51.416;5.442;2023-10-13T12:00:31;8.48;;;4.05;;
73515;SDS011;61763;51.416;5.442;2023-10-13T12:03:15;13.35;;;5.22;;
73515;SDS011;61763;51.416;5.442;2023-10-13T12:05:59;13.00;;;3.78;;
73515;SDS011;61763;51.416;5.442;2023-10-13T12:08:42;9.20;;;5.00;;
73515;SDS011;61763;51.416;5.442;2023-10-13T12:11:14;15.60;;;4.93;;
73515;SDS011;61763;51.416;5.442;2023-10-13T12:16:42;10.73;;;4.65;;
73515;SDS011;61763;51.416;5.442;2023-10-13T12:19:22;10.00;;;4.75;;
73515;SDS011;61763;51.416;5.442;2023-10-13T12:21:54;16.45;;;5.05;;
73515;SDS011;61763;51.416;5.442;2023-10-13T12:27:04;12.15;;;5.15;;
73515;SDS011;61763;51.416;5.442;2023-10-13T12:29:48;13.38;;;5.32;;
73515;SDS011;61763;51.416;5.442;2023-10-13T12:32:21;13.25;;;3.10;;
73515;SDS011;61763;51.416;5.442;2023-10-13T12:34:55;11.90;;;3.38;;
73515;SDS011;61763;51.416;5.442;2023-10-13T12:37:47;13.38;;;4.97;;
73515;SDS011;61763;51.416;5.442;2023-10-13T12:40:13;13.63;;;4.05;;
73515;SDS011;61763;51.416;5.442;2023-10-13T12:42:58;11.63;;;5.28;;
73515;SDS011;61763;51.416;5.442;2023-10-13T12:45:43;13.77;;;6.35;;
73515;SDS011;61763;51.416;5.442;2023-10-13T12:48:28;11.32;;;4.80;;
73515;SDS011;61763;51.416;5.442;2023-10-13T12:51:13;16.40;;;3.40;;
73515;SDS011;61763;51.416;5.442;2023-10-13T12:54:14;12.00;;;5.25;;
73515;SDS011;61763;51.416;5.442;2023-10-13T12:56:40;14.88;;;4.25;;
73515;SDS011;61763;51.416;5.442;2023-10-13T12:59:09;11.32;;;4.72;;
73515;SDS011;61763;51.416;5.442;2023-10-13T13:01:38;16.35;;;5.18;;
73515;SDS011;61763;51.416;5.442;2023-10-13T13:04:07;14.82;;;5.18;;
73515;SDS011;61763;51.416;5.442;2023-10-13T13:06:37;9.85;;;3.33;;
73515;SDS011;61763;51.416;5.442;2023-10-13T13:09:04;13.00;;;4.78;;
73515;SDS011;61763;51.416;5.442;2023-10-13T13:11:34;12.32;;;3.90;;
73515;SDS011;61763;51.416;5.442;2023-10-13T13:14:04;9.77;;;5.13;;
73515;SDS011;61763;51.416;5.442;2023-10-13T13:16:34;13.85;;;4.75;;
73515;SDS011;61763;51.416;5.442;2023-10-13T13:21:28;10.60;;;2.85;;
73515;SDS011;61763;51.416;5.442;2023-10-13T13:23:54;13.40;;;3.83;;
73515;SDS011;61763;51.416;5.442;2023-10-13T13:26:20;8.65;;;2.72;;
73515;SDS011;61763;51.416;5.442;2023-10-13T13:28:46;11.55;;;4.07;;
73515;SDS011;61763;51.416;5.442;2023-10-13T13:31:18;8.05;;;3.80;;
73515;SDS011;61763;51.416;5.442;2023-10-13T13:33:50;12.38;;;3.05;;
73515;SDS011;61763;51.416;5.442;2023-10-13T13:36:16;12.32;;;4.53;;
73515;SDS011;61763;51.416;5.442;2023-10-13T13:38:42;11.13;;;4.68;;
73515;SDS011;61763;51.416;5.442;2023-10-13T13:41:14;12.93;;;3.60;;
73515;SDS011;61763;51.416;5.442;2023-10-13T13:43:44;9.82;;;4.60;;
73515;SDS011;61763;51.416;5.442;2023-10-13T13:46:20;13.20;;;4.50;;
73515;SDS011;61763;51.416;5.442;2023-10-13T13:48:50;15.38;;;4.00;;
73515;SDS011;61763;51.416;5.442;2023-10-13T13:51:22;9.35;;;4.57;;
73515;SDS011;61763;51.416;5.442;2023-10-13T13:53:52;9.68;;;2.90;;
73515;SDS011;61763;51.416;5.442;2023-10-13T13:56:18;11.27;;;3.75;;
73515;SDS011;61763;51.416;5.442;2023-10-13T13:58:45;13.65;;;4.45;;
73515;SDS011;61763;51.416;5.442;2023-10-13T14:01:11;11.60;;;4.47;;
73515;SDS011;61763;51.416;5.442;2023-10-13T14:03:38;12.35;;;4.28;;
73515;SDS011;61763;51.416;5.442;2023-10-13T14:06:10;9.43;;;3.85;;
73515;SDS011;61763;51.416;5.442;2023-10-13T14:08:42;9.45;;;4.00;;
73515;SDS011;61763;51.416;5.442;2023-10-13T14:11:12;12.00;;;4.10;;
73515;SDS011;61763;51.416;5.442;2023-10-13T14:13:37;9.65;;;2.58;;
73515;SDS011;61763;51.416;5.442;2023-10-13T14:16:16;14.27;;;4.22;;
73515;SDS011;61763;51.416;5.442;2023-10-13T14:18:46;9.98;;;2.65;;
73515;SDS011;61763;51.416;5.442;2023-10-13T14:21:12;13.43;;;2.53;;
73515;SDS011;61763;51.416;5.442;2023-10-13T14:23:48;7.95;;;4.63;;
73515;SDS011;61763;51.416;5.442;2023-10-13T14:26:16;9.35;;;3.72;;
73515;SDS011;61763;51.416;5.442;2023-10-13T14:28:49;11.85;;;3.22;;
73515;SDS011;61763;51.416;5.442;2023-10-13T14:31:33;10.65;;;4.55;;
73515;SDS011;61763;51.416;5.442;2023-10-13T14:34:04;9.77;;;4.28;;
73515;SDS011;61763;51.416;5.442;2023-10-13T14:36:30;9.35;;;4.47;;
73515;SDS011;61763;51.416;5.442;2023-10-13T14:38:59;9.80;;;4.43;;
73515;SDS011;61763;51.416;5.442;2023-10-13T14:41:28;11.25;;;4.60;;
73515;SDS011;61763;51.416;5.442;2023-10-13T14:43:54;12.82;;;4.53;;
73515;SDS011;61763;51.416;5.442;2023-10-13T14:46:30;9.93;;;4.20;;
73515;SDS011;61763;51.416;5.442;2023-10-13T14:48:55;10.00;;;4.53;;
73515;SDS011;61763;51.416;5.442;2023-10-13T14:51:21;10.05;;;4.28;;
73515;SDS011;61763;51.416;5.442;2023-10-13T14:53:47;11.73;;;4.65;;
73515;SDS011;61763;51.416;5.442;2023-10-13T14:56:14;8.82;;;3.72;;
73515;SDS011;61763;51.416;5.442;2023-10-13T15:01:13;9.95;;;2.90;;
73515;SDS011;61763;51.416;5.442;2023-10-13T15:06:08;12.73;;;5.32;;
73515;SDS011;61763;51.416;5.442;2023-10-13T15:08:45;7.05;;;2.75;;
73515;SDS011;61763;51.416;5.442;2023-10-13T15:11:12;12.30;;;5.05;;
73515;SDS011;61763;51.416;5.442;2023-10-13T15:13:39;9.88;;;4.50;;
73515;SDS011;61763;51.416;5.442;2023-10-13T15:18:46;7.88;;;3.10;;
73515;SDS011;61763;51.416;5.442;2023-10-13T15:21:22;12.88;;;3.08;;
73515;SDS011;61763;51.416;5.442;2023-10-13T15:23:52;11.45;;;4.72;;
73515;SDS011;61763;51.416;5.442;2023-10-13T15:26:21;9.05;;;2.60;;
73515;SDS011;61763;51.416;5.442;2023-10-13T15:28:48;9.93;;;2.65;;
73515;SDS011;61763;51.416;5.442;2023-10-13T15:31:17;13.55;;;3.40;;
73515;SDS011;61763;51.416;5.442;2023-10-13T15:34:02;11.52;;;4.68;;
73515;SDS011;61763;51.416;5.442;2023-10-13T15:36:32;11.18;;;3.92;;
73515;SDS011;61763;51.416;5.442;2023-10-13T15:41:25;11.18;;;4.40;;
73515;SDS011;61763;51.416;5.442;2023-10-13T15:43:52;8.82;;;4.22;;
73515;SDS011;61763;51.416;5.442;2023-10-13T15:46:23;10.27;;;4.13;;
73515;SDS011;61763;51.416;5.442;2023-10-13T15:48:49;6.80;;;2.42;;
73515;SDS011;61763;51.416;5.442;2023-10-13T15:51:16;8.73;;;3.70;;
73515;SDS011;61763;51.416;5.442;2023-10-13T15:53:42;11.15;;;4.53;;
73515;SDS011;61763;51.416;5.442;2023-10-13T15:56:09;9.85;;;4.63;;
73515;SDS011;61763;51.416;5.442;2023-10-13T15:58:38;9.50;;;2.85;;
73515;SDS011;61763;51.416;5.442;2023-10-13T16:03:29;11.10;;;4.18;;
73515;SDS011;61763;51.416;5.442;2023-10-13T16:05:55;7.38;;;2.58;;
73515;SDS011;61763;51.416;5.442;2023-10-13T16:08:20;12.60;;;5.38;;
73515;SDS011;61763;51.416;5.442;2023-10-13T16:10:46;9.35;;;3.15;;
73515;SDS011;61763;51.416;5.442;2023-10-13T16:13:11;12.60;;;4.10;;
73515;SDS011;61763;51.416;5.442;2023-10-13T16:15:45;8.15;;;2.72;;
73515;SDS011;61763;51.416;5.442;2023-10-13T16:18:12;6.18;;;2.97;;
73515;SDS011;61763;51.416;5.442;2023-10-13T16:20:38;9.45;;;4.13;;
73515;SDS011;61763;51.416;5.442;2023-10-13T16:23:05;11.00;;;3.20;;
73515;SDS011;61763;51.416;5.442;2023-10-13T16:25:30;7.18;;;2.88;;